Time;durP1;ratioP1;P1;durP2;ratioP2;P2;SDS_P1;SDS_P2;PMS_P1;PMS_P2;Temp;Humidity;BMP_temperature;BMP_pressure;BME280_temperature;BME280_humidity;BME280_pressure;Samples;Min_cycle;Max_cycle;Signal;HPM_P1;HPM_P2
2022/01/17 00:00:57;;;;;;;14.65;4.32;;;;;;;;;;5049553;28;20060;-52
2022/01/17 00:03:24;;;;;;;14.68;5.00;;;;;;;;;;5050066;28;20130;-49
2022/01/17 00:05:51;;;;;;;14.05;4.53;;;;;;;;;;5044288;28;20052;-59
2022/01/17 00:08:18;;;;;;;20.13;3.95;;;;;;;;;;5048344;28;20098;-54
2022/01/17 00:10:46;;;;;;;9.88;3.88;;;;;;;;;;5043111;28;20075;-55
2022/01/17 00:13:21;;;;;;;10.40;3.97;;;;;;;;;;5048612;28;20108;-52
2022/01/17 00:15:51;;;;;;;16.17;4.05;;;;;;;;;;5040859;28;20052;-54
2022/01/17 00:18:28;;;;;;;12.13;3.97;;;;;;;;;;5049872;28;20601;-56
2022/01/17 00:20:56;;;;;;;11.65;3.78;;;;;;;;;;5042496;28;20053;-54
2022/01/17 00:23:23;;;;;;;9.50;3.72;;;;;;;;;;5047095;28;20100;-54
2022/01/17 00:25:51;;;;;;;15.95;3.72;;;;;;;;;;5039805;28;20107;-52
2022/01/17 00:28:18;;;;;;;17.77;3.88;;;;;;;;;;5046884;28;20134;-53
2022/01/17 00:30:44;;;;;;;12.32;3.70;;;;;;;;;;5042041;28;20049;-53
2022/01/17 00:33:11;;;;;;;17.73;3.65;;;;;;;;;;5047425;28;20148;-50
2022/01/17 00:35:38;;;;;;;7.60;3.30;;;;;;;;;;5041571;28;20069;-53
2022/01/17 00:38:04;;;;;;;7.28;2.42;;;;;;;;;;5047029;28;20111;-52
2022/01/17 00:40:31;;;;;;;18.45;2.70;;;;;;;;;;5042892;28;20056;-54
2022/01/17 00:42:59;;;;;;;9.88;2.28;;;;;;;;;;5048072;28;20138;-51
2022/01/17 00:45:27;;;;;;;15.18;2.55;;;;;;;;;;5039769;28;20087;-56
2022/01/17 00:47:55;;;;;;;13.90;1.70;;;;;;;;;;5047350;28;20103;-53
2022/01/17 00:50:21;;;;;;;13.63;2.15;;;;;;;;;;5037928;28;20071;-54
2022/01/17 00:52:48;;;;;;;16.08;1.75;;;;;;;;;;5046843;28;20076;-54
2022/01/17 00:55:15;;;;;;;18.35;2.28;;;;;;;;;;5043776;28;20071;-57
2022/01/17 00:57:41;;;;;;;11.48;1.80;;;;;;;;;;5041281;28;20110;-53
2022/01/17 01:00:10;;;;;;;11.40;2.28;;;;;;;;;;5048493;28;20129;-56
2022/01/17 01:02:37;;;;;;;9.65;1.80;;;;;;;;;;5038563;28;20059;-61
2022/01/17 01:05:05;;;;;;;8.38;1.58;;;;;;;;;;5046404;28;20094;-54
2022/01/17 01:07:32;;;;;;;5.78;1.15;;;;;;;;;;5039266;28;20060;-54
2022/01/17 01:10:03;;;;;;;8.45;1.80;;;;;;;;;;5047907;28;20041;-52
2022/01/17 01:12:30;;;;;;;13.93;1.40;;;;;;;;;;5042310;28;20057;-55
2022/01/17 01:14:56;;;;;;;7.95;2.05;;;;;;;;;;5047914;28;20053;-54
2022/01/17 01:17:37;;;;;;;4.87;0.90;;;;;;;;;;5042963;28;20067;-53
2022/01/17 01:20:23;;;;;;;10.45;1.58;;;;;;;;;;5043866;28;20052;-56
2022/01/17 01:28:18;;;;;;;6.55;0.93;;;;;;;;;;5040679;28;20053;-53
2022/01/17 01:30:49;;;;;;;4.82;1.02;;;;;;;;;;5048342;28;20059;-57
2022/01/17 01:33:25;;;;;;;3.83;0.75;;;;;;;;;;5041490;28;20144;-49
2022/01/17 01:36:00;;;;;;;9.18;0.82;;;;;;;;;;5048437;28;20049;-55
2022/01/17 01:38:27;;;;;;;4.88;1.25;;;;;;;;;;5041647;28;20052;-53
2022/01/17 01:40:54;;;;;;;11.15;1.75;;;;;;;;;;5048478;28;20083;-57
2022/01/17 01:43:20;;;;;;;7.25;1.83;;;;;;;;;;5039816;28;20048;-51
2022/01/17 01:45:47;;;;;;;13.15;1.45;;;;;;;;;;5028889;28;20109;-55
2022/01/17 01:48:14;;;;;;;8.57;1.75;;;;;;;;;;5041594;28;20049;-57
2022/01/17 01:50:42;;;;;;;17.17;1.48;;;;;;;;;;5047668;28;20134;-52
2022/01/17 01:53:08;;;;;;;6.57;1.33;;;;;;;;;;5041306;28;20463;-55
2022/01/17 01:55:36;;;;;;;6.28;1.40;;;;;;;;;;5047452;28;20056;-57
2022/01/17 01:58:03;;;;;;;10.53;1.17;;;;;;;;;;5039242;28;20474;-53
2022/01/17 02:00:30;;;;;;;9.55;1.30;;;;;;;;;;5047737;28;20380;-54
2022/01/17 02:02:56;;;;;;;7.43;1.10;;;;;;;;;;5047144;28;20106;-53
2022/01/17 02:05:25;;;;;;;8.05;1.40;;;;;;;;;;5039534;28;20107;-55
2022/01/17 02:07:53;;;;;;;8.38;1.42;;;;;;;;;;5046961;28;20049;-54
2022/01/17 02:10:19;;;;;;;6.65;1.27;;;;;;;;;;5045084;28;20498;-52
2022/01/17 02:12:46;;;;;;;12.98;1.52;;;;;;;;;;5050274;28;20044;-56
2022/01/17 02:15:14;;;;;;;4.47;0.95;;;;;;;;;;5043156;28;20103;-53
2022/01/17 02:17:45;;;;;;;9.00;1.30;;;;;;;;;;5051527;28;20057;-56
2022/01/17 02:20:17;;;;;;;7.93;1.00;;;;;;;;;;5043189;28;20060;-54
2022/01/17 02:22:43;;;;;;;11.25;1.20;;;;;;;;;;5049560;28;20068;-52
2022/01/17 02:25:10;;;;;;;15.68;1.33;;;;;;;;;;5043934;28;20053;-53
2022/01/17 02:27:37;;;;;;;8.98;1.15;;;;;;;;;;5050428;28;20114;-57
2022/01/17 02:30:04;;;;;;;11.63;0.93;;;;;;;;;;5041939;28;20090;-54
2022/01/17 02:32:30;;;;;;;6.65;1.20;;;;;;;;;;5051362;28;20098;-50
2022/01/17 02:35:11;;;;;;;5.97;0.80;;;;;;;;;;5045133;28;20048;-56
2022/01/17 02:37:38;;;;;;;8.77;1.10;;;;;;;;;;5050255;28;20061;-50
2022/01/17 02:40:06;;;;;;;6.00;1.07;;;;;;;;;;5045537;28;20053;-52
2022/01/17 02:42:33;;;;;;;7.90;1.20;;;;;;;;;;5049571;28;20053;-57
2022/01/17 02:45:08;;;;;;;7.50;1.20;;;;;;;;;;5042497;28;20068;-57
2022/01/17 02:47:35;;;;;;;10.98;1.40;;;;;;;;;;5049382;28;20057;-55
2022/01/17 02:50:01;;;;;;;10.63;1.10;;;;;;;;;;5044089;28;20048;-56
2022/01/17 02:52:28;;;;;;;8.45;1.00;;;;;;;;;;5048556;28;20048;-57
2022/01/17 02:54:56;;;;;;;8.70;0.95;;;;;;;;;;5050078;28;20059;-54
2022/01/17 02:57:24;;;;;;;11.93;1.10;;;;;;;;;;5043425;28;20114;-55
2022/01/17 02:59:52;;;;;;;;;;;;;;;;;;5048768;28;20303;-55
2022/01/17 03:02:18;;;;;;;5.45;0.82;;;;;;;;;;5059960;28;19928;-54
2022/01/17 03:04:45;;;;;;;6.32;0.88;;;;;;;;;;5048866;28;20073;-51
2022/01/17 03:07:11;;;;;;;12.90;0.98;;;;;;;;;;5043591;28;20111;-58
2022/01/17 03:09:48;;;;;;;14.13;1.10;;;;;;;;;;5048268;28;20048;-55
2022/01/17 03:12:17;;;;;;;8.02;0.77;;;;;;;;;;5042632;28;20076;-55
2022/01/17 03:14:43;;;;;;;10.63;1.17;;;;;;;;;;5028716;28;20078;-50
2022/01/17 03:17:10;;;;;;;7.18;0.80;;;;;;;;;;5033077;28;20132;-59
2022/01/17 03:19:36;;;;;;;12.38;0.95;;;;;;;;;;5048147;28;20138;-59
2022/01/17 03:22:03;;;;;;;5.57;0.88;;;;;;;;;;5041893;28;20485;-59
2022/01/17 03:24:30;;;;;;;12.60;1.20;;;;;;;;;;5049202;28;20156;-60
2022/01/17 03:26:56;;;;;;;12.50;1.30;;;;;;;;;;5041876;28;20079;-59
2022/01/17 03:29:24;;;;;;;11.48;1.40;;;;;;;;;;5047409;28;20057;-59
2022/01/17 03:31:51;;;;;;;5.93;1.00;;;;;;;;;;5041945;28;20112;-59
2022/01/17 03:34:19;;;;;;;10.90;0.90;;;;;;;;;;5047779;28;20183;-56
2022/01/17 03:36:46;;;;;;;7.18;1.00;;;;;;;;;;5043896;28;20143;-57
2022/01/17 03:39:13;;;;;;;11.23;1.10;;;;;;;;;;5046798;28;20145;-59
2022/01/17 03:41:40;;;;;;;7.32;1.05;;;;;;;;;;5047585;28;20103;-57
2022/01/17 03:44:07;;;;;;;5.18;0.88;;;;;;;;;;5041912;28;20060;-57
2022/01/17 03:46:35;;;;;;;11.95;1.20;;;;;;;;;;5047368;28;20134;-59
2022/01/17 03:49:02;;;;;;;4.20;0.68;;;;;;;;;;5042394;28;20053;-55
2022/01/17 03:51:29;;;;;;;9.32;1.10;;;;;;;;;;5047561;28;20068;-58
2022/01/17 03:53:56;;;;;;;7.43;0.93;;;;;;;;;;5041901;28;20080;-58
2022/01/17 03:56:22;;;;;;;9.90;0.90;;;;;;;;;;5047425;28;20156;-56
2022/01/17 03:58:50;;;;;;;5.30;0.88;;;;;;;;;;5042014;28;20122;-56
2022/01/17 04:01:17;;;;;;;9.60;1.27;;;;;;;;;;5045611;28;20040;-51
2022/01/17 04:03:46;;;;;;;9.02;0.80;;;;;;;;;;5041972;28;20060;-55
2022/01/17 04:06:14;;;;;;;7.97;1.00;;;;;;;;;;5047875;28;20055;-51
2022/01/17 04:08:41;;;;;;;7.15;1.02;;;;;;;;;;5037771;28;20049;-57
2022/01/17 04:11:07;;;;;;;5.38;0.80;;;;;;;;;;5040911;28;20081;-56
2022/01/17 04:13:35;;;;;;;8.32;1.10;;;;;;;;;;5041545;28;20045;-54
2022/01/17 04:16:02;;;;;;;;;;;;;;;;;;5047833;28;20071;-55
2022/01/17 04:18:29;;;;;;;4.28;0.70;;;;;;;;;;5041155;28;20329;-54
2022/01/17 04:21:01;;;;;;;6.22;0.80;;;;;;;;;;5048205;28;20041;-48
2022/01/17 04:23:27;;;;;;;6.85;0.80;;;;;;;;;;5047449;28;20056;-56
2022/01/17 04:25:55;;;;;;;2.90;0.80;;;;;;;;;;5041110;28;20057;-54
2022/01/17 04:28:22;;;;;;;6.93;0.95;;;;;;;;;;5047166;28;20076;-55
2022/01/17 04:30:48;;;;;;;6.03;0.80;;;;;;;;;;5040486;28;20118;-53
2022/01/17 04:33:15;;;;;;;8.00;0.88;;;;;;;;;;5046173;28;20056;-53
2022/01/17 04:35:48;;;;;;;7.55;1.25;;;;;;;;;;5040139;28;20135;-52
2022/01/17 04:38:17;;;;;;;11.52;0.95;;;;;;;;;;5048572;28;20049;-52
2022/01/17 04:40:46;;;;;;;5.47;0.85;;;;;;;;;;5041780;28;20114;-54
2022/01/17 04:43:18;;;;;;;;;;;;;;;;;;5047520;28;20052;-58
2022/01/17 04:45:44;;;;;;;3.92;0.75;;;;;;;;;;5040793;28;20011;-51
2022/01/17 04:48:11;;;;;;;12.80;1.15;;;;;;;;;;5045576;28;20114;-56
2022/01/17 04:50:38;;;;;;;6.55;0.93;;;;;;;;;;5040333;28;20139;-51
2022/01/17 04:53:06;;;;;;;12.82;1.20;;;;;;;;;;5046428;28;20114;-54
2022/01/17 04:55:36;;;;;;;7.78;0.90;;;;;;;;;;5033544;28;20049;-50
2022/01/17 04:58:03;;;;;;;6.93;1.13;;;;;;;;;;5046073;28;20053;-53
2022/01/17 05:00:29;;;;;;;5.97;1.42;;;;;;;;;;5038536;28;20057;-53
2022/01/17 05:02:56;;;;;;;6.28;0.73;;;;;;;;;;5045665;28;20110;-55
2022/01/17 05:05:22;;;;;;;9.65;0.63;;;;;;;;;;5040202;28;20057;-55
2022/01/17 05:07:49;;;;;;;8.20;1.10;;;;;;;;;;5046096;28;20397;-55
2022/01/17 05:10:16;;;;;;;6.25;0.93;;;;;;;;;;5045759;28;20140;-55
2022/01/17 05:12:45;;;;;;;5.40;1.00;;;;;;;;;;5037170;28;20041;-53
2022/01/17 05:15:21;;;;;;;4.05;0.80;;;;;;;;;;5025713;28;20080;-50
2022/01/17 05:17:58;;;;;;;8.88;1.65;;;;;;;;;;5038178;28;20060;-51
2022/01/17 05:20:25;;;;;;;4.35;0.80;;;;;;;;;;5045624;28;20064;-58
2022/01/17 05:22:52;;;;;;;7.45;1.08;;;;;;;;;;5040723;28;20153;-56
2022/01/17 05:25:19;;;;;;;8.52;1.05;;;;;;;;;;5045903;28;20135;-52
2022/01/17 05:27:47;;;;;;;6.22;0.80;;;;;;;;;;5041142;28;20140;-57
2022/01/17 05:30:16;;;;;;;5.87;0.83;;;;;;;;;;5046262;28;20098;-56
2022/01/17 05:32:43;;;;;;;4.13;0.88;;;;;;;;;;5040831;28;20311;-53
2022/01/17 05:35:10;;;;;;;9.60;1.10;;;;;;;;;;5046877;28;20057;-55
2022/01/17 05:37:37;;;;;;;9.40;1.45;;;;;;;;;;5039751;28;20045;-57
2022/01/17 05:40:04;;;;;;;9.32;1.02;;;;;;;;;;5046196;28;20106;-52
2022/01/17 05:42:31;;;;;;;11.65;1.52;;;;;;;;;;5041364;28;20365;-57
2022/01/17 05:44:59;;;;;;;4.57;1.13;;;;;;;;;;5048725;28;20064;-57
2022/01/17 05:47:26;;;;;;;7.00;1.40;;;;;;;;;;5043737;28;20057;-57
2022/01/17 05:49:52;;;;;;;6.45;1.00;;;;;;;;;;5049348;28;20053;-54
2022/01/17 05:52:19;;;;;;;7.32;1.85;;;;;;;;;;5044038;28;20049;-56
2022/01/17 05:54:45;;;;;;;17.92;4.95;;;;;;;;;;5049598;28;20064;-52
2022/01/17 05:57:13;;;;;;;11.13;2.35;;;;;;;;;;5047884;28;20158;-54
2022/01/17 05:59:40;;;;;;;7.75;2.08;;;;;;;;;;5045990;28;20577;-50
2022/01/17 06:02:08;;;;;;;5.63;1.75;;;;;;;;;;5050901;28;20067;-54
2022/01/17 06:04:35;;;;;;;11.27;2.10;;;;;;;;;;5042809;28;20061;-57
2022/01/17 06:07:03;;;;;;;5.65;1.88;;;;;;;;;;5050786;28;20135;-52
2022/01/17 06:09:29;;;;;;;11.88;2.35;;;;;;;;;;5048676;28;20124;-52
2022/01/17 06:11:56;;;;;;;8.15;2.30;;;;;;;;;;5051822;28;20052;-53
2022/01/17 06:14:23;;;;;;;6.13;2.15;;;;;;;;;;5044124;28;20126;-52
2022/01/17 06:16:50;;;;;;;15.02;2.90;;;;;;;;;;5051365;28;20110;-56
2022/01/17 06:19:20;;;;;;;9.23;2.83;;;;;;;;;;5040204;28;20110;-54
2022/01/17 06:21:48;;;;;;;12.70;2.70;;;;;;;;;;5049952;28;20107;-51
2022/01/17 06:24:14;;;;;;;11.00;3.03;;;;;;;;;;5042048;28;20059;-55
2022/01/17 06:26:42;;;;;;;10.23;2.80;;;;;;;;;;5049676;28;20061;-56
2022/01/17 06:29:09;;;;;;;9.30;2.60;;;;;;;;;;5043825;28;20057;-54
2022/01/17 06:31:36;;;;;;;9.68;2.70;;;;;;;;;;5049008;28;20056;-53
2022/01/17 06:34:03;;;;;;;9.45;2.53;;;;;;;;;;5043653;28;20077;-53
2022/01/17 06:36:33;;;;;;;17.85;3.10;;;;;;;;;;5050510;28;20059;-51
2022/01/17 06:39:00;;;;;;;12.65;2.92;;;;;;;;;;5044593;28;20106;-54
2022/01/17 06:41:27;;;;;;;7.15;2.72;;;;;;;;;;5039460;28;20061;-53
2022/01/17 06:43:53;;;;;;;11.82;3.78;;;;;;;;;;5049794;28;20085;-54
2022/01/17 06:46:22;;;;;;;16.13;4.88;;;;;;;;;;5042183;28;20073;-52
2022/01/17 06:48:48;;;;;;;11.75;3.70;;;;;;;;;;5041993;28;20090;-53
2022/01/17 06:51:15;;;;;;;5.85;2.10;;;;;;;;;;5043195;28;20091;-52
2022/01/17 06:53:43;;;;;;;8.98;2.88;;;;;;;;;;5048132;28;20107;-51
2022/01/17 06:56:11;;;;;;;13.90;3.70;;;;;;;;;;5034953;28;20056;-53
2022/01/17 06:58:38;;;;;;;13.82;3.33;;;;;;;;;;5048480;28;20056;-55
2022/01/17 07:01:04;;;;;;;14.52;3.42;;;;;;;;;;5050935;28;20064;-48
2022/01/17 07:03:31;;;;;;;11.13;2.83;;;;;;;;;;5049056;28;20053;-52
2022/01/17 07:05:58;;;;;;;9.20;2.67;;;;;;;;;;5043733;28;20052;-53
2022/01/17 07:08:25;;;;;;;11.02;3.03;;;;;;;;;;5048724;28;20138;-53
2022/01/17 07:10:53;;;;;;;10.48;3.38;;;;;;;;;;5042313;28;20049;-57
2022/01/17 07:13:19;;;;;;;15.43;3.63;;;;;;;;;;5048327;28;20055;-57
2022/01/17 07:15:46;;;;;;;13.23;3.35;;;;;;;;;;5058340;28;20056;-58
2022/01/17 07:18:13;;;;;;;12.68;4.18;;;;;;;;;;5048400;28;20057;-56
2022/01/17 07:20:40;;;;;;;10.80;3.38;;;;;;;;;;5042392;28;20057;-55
2022/01/17 07:23:06;;;;;;;12.20;3.60;;;;;;;;;;5047995;28;20116;-56
2022/01/17 07:25:38;;;;;;;11.02;4.20;;;;;;;;;;5048140;28;20055;-58
2022/01/17 07:28:06;;;;;;;15.95;4.90;;;;;;;;;;5045977;28;20073;-60
2022/01/17 07:30:33;;;;;;;10.20;3.83;;;;;;;;;;5048492;28;20057;-57
2022/01/17 07:33:00;;;;;;;12.63;4.10;;;;;;;;;;5034992;28;20053;-60
2022/01/17 07:35:27;;;;;;;11.80;5.22;;;;;;;;;;5048853;28;20081;-60
2022/01/17 07:37:54;;;;;;;19.57;4.27;;;;;;;;;;5043974;28;20053;-57
2022/01/17 07:40:20;;;;;;;10.65;4.05;;;;;;;;;;5049656;28;20311;-56
2022/01/17 07:42:47;;;;;;;13.82;3.13;;;;;;;;;;5042337;28;20056;-57
2022/01/17 07:45:18;;;;;;;15.18;5.22;;;;;;;;;;5048232;28;20072;-57
2022/01/17 07:47:56;;;;;;;15.43;5.60;;;;;;;;;;5041971;28;20138;-54
2022/01/17 07:50:23;;;;;;;;;;;;;;;;;;5047929;28;20063;-51
2022/01/17 07:52:49;;;;;;;13.40;4.68;;;;;;;;;;5041864;28;19978;-56
2022/01/17 07:55:17;;;;;;;15.35;4.65;;;;;;;;;;5047372;28;20080;-56
2022/01/17 07:57:43;;;;;;;21.98;5.72;;;;;;;;;;5040248;28;20080;-57
2022/01/17 08:00:11;;;;;;;20.55;5.50;;;;;;;;;;5046325;28;20049;-59
2022/01/17 08:02:39;;;;;;;22.02;6.07;;;;;;;;;;5041159;28;20278;-53
2022/01/17 08:05:07;;;;;;;12.90;5.00;;;;;;;;;;5047081;28;20041;-55
2022/01/17 08:07:34;;;;;;;13.50;4.53;;;;;;;;;;5041260;28;20053;-56
2022/01/17 08:10:01;;;;;;;20.52;7.68;;;;;;;;;;5046345;28;20106;-57
2022/01/17 08:12:27;;;;;;;20.08;7.15;;;;;;;;;;5045889;28;20083;-56
2022/01/17 08:14:57;;;;;;;15.40;5.10;;;;;;;;;;5042568;28;20053;-54
2022/01/17 08:17:24;;;;;;;16.63;5.43;;;;;;;;;;5046843;28;20049;-58
2022/01/17 08:19:52;;;;;;;19.35;5.95;;;;;;;;;;5040352;28;20048;-57
2022/01/17 08:22:19;;;;;;;13.38;5.25;;;;;;;;;;5045358;28;20145;-57
2022/01/17 08:24:45;;;;;;;15.70;5.40;;;;;;;;;;5040483;28;20044;-53
2022/01/17 08:27:12;;;;;;;20.10;5.28;;;;;;;;;;5047074;28;20048;-55
2022/01/17 08:29:38;;;;;;;16.73;5.35;;;;;;;;;;5041082;28;20056;-53
2022/01/17 08:32:07;;;;;;;16.33;5.18;;;;;;;;;;5046862;28;20052;-54
2022/01/17 08:34:33;;;;;;;9.63;3.75;;;;;;;;;;5041646;28;20084;-56
2022/01/17 08:37:03;;;;;;;15.80;5.28;;;;;;;;;;5047118;28;20049;-56
2022/01/17 08:39:30;;;;;;;18.88;5.53;;;;;;;;;;5040427;28;20075;-53
2022/01/17 08:41:56;;;;;;;13.85;4.70;;;;;;;;;;5046489;28;20055;-55
2022/01/17 08:44:23;;;;;;;21.05;5.15;;;;;;;;;;5041286;28;20064;-57
2022/01/17 08:46:50;;;;;;;18.55;4.47;;;;;;;;;;5046995;28;20103;-56
2022/01/17 08:49:16;;;;;;;13.80;4.53;;;;;;;;;;5041128;28;20057;-56
2022/01/17 08:51:43;;;;;;;15.30;4.65;;;;;;;;;;5045341;28;20088;-58
2022/01/17 08:54:11;;;;;;;17.17;4.82;;;;;;;;;;5042457;28;20065;-58
2022/01/17 08:56:38;;;;;;;16.70;4.88;;;;;;;;;;5046544;28;20509;-56
2022/01/17 08:59:05;;;;;;;16.27;5.05;;;;;;;;;;5042405;28;20091;-56
2022/01/17 09:01:31;;;;;;;10.98;3.97;;;;;;;;;;5031204;28;20084;-59
2022/01/17 09:03:58;;;;;;;17.00;4.88;;;;;;;;;;5026117;28;20049;-53
2022/01/17 09:06:27;;;;;;;17.00;4.18;;;;;;;;;;5038020;28;20132;-55
2022/01/17 09:08:54;;;;;;;20.48;5.30;;;;;;;;;;5046624;28;20088;-50
2022/01/17 09:11:22;;;;;;;17.10;4.88;;;;;;;;;;5041974;28;20049;-59
2022/01/17 09:13:50;;;;;;;11.97;4.00;;;;;;;;;;5033928;28;20045;-57
2022/01/17 09:16:17;;;;;;;17.50;4.50;;;;;;;;;;5032000;28;20300;-53
2022/01/17 09:18:44;;;;;;;16.05;4.70;;;;;;;;;;5045918;28;20056;-56
2022/01/17 09:21:10;;;;;;;18.88;4.78;;;;;;;;;;5041275;28;20056;-55
2022/01/17 09:23:38;;;;;;;11.40;4.00;;;;;;;;;;5046259;28;20094;-57
2022/01/17 09:26:04;;;;;;;14.35;4.03;;;;;;;;;;5039670;28;20132;-57
2022/01/17 09:28:34;;;;;;;10.98;3.50;;;;;;;;;;5045501;28;20126;-57
2022/01/17 09:31:00;;;;;;;16.65;4.05;;;;;;;;;;5040123;28;20048;-56
2022/01/17 09:33:27;;;;;;;13.75;4.65;;;;;;;;;;5045469;28;20063;-51
2022/01/17 09:35:54;;;;;;;13.40;3.65;;;;;;;;;;5040582;28;20056;-59
2022/01/17 09:38:21;;;;;;;15.60;4.13;;;;;;;;;;5045403;28;20053;-62
2022/01/17 09:40:47;;;;;;;21.58;4.20;;;;;;;;;;5045228;28;20144;-56
2022/01/17 09:43:14;;;;;;;19.15;5.07;;;;;;;;;;5039801;28;20065;-56
2022/01/17 09:45:42;;;;;;;18.88;5.50;;;;;;;;;;5045310;28;20138;-58
2022/01/17 09:48:09;;;;;;;17.63;3.85;;;;;;;;;;5039507;28;20144;-56
2022/01/17 09:50:46;;;;;;;16.52;3.58;;;;;;;;;;5045544;28;20076;-59
2022/01/17 09:53:16;;;;;;;17.65;3.20;;;;;;;;;;5039837;28;20148;-58
2022/01/17 09:55:42;;;;;;;12.85;3.58;;;;;;;;;;5045646;28;20057;-58
2022/01/17 09:58:10;;;;;;;13.07;3.03;;;;;;;;;;5039414;28;20053;-58
2022/01/17 10:00:37;;;;;;;18.98;3.22;;;;;;;;;;5045606;28;20320;-56
2022/01/17 10:03:06;;;;;;;15.82;3.28;;;;;;;;;;5038855;28;20072;-57
2022/01/17 10:05:37;;;;;;;16.67;3.08;;;;;;;;;;5045417;28;20063;-55
2022/01/17 10:08:04;;;;;;;10.45;2.85;;;;;;;;;;5037412;28;20068;-56
2022/01/17 10:10:35;;;;;;;16.13;2.70;;;;;;;;;;5044007;28;20053;-58
2022/01/17 10:13:04;;;;;;;21.25;2.67;;;;;;;;;;5037085;28;20130;-54
2022/01/17 10:15:43;;;;;;;10.57;2.88;;;;;;;;;;5046014;28;20057;-55
2022/01/17 10:18:23;;;;;;;14.25;3.08;;;;;;;;;;5036787;28;20053;-56
2022/01/17 10:20:54;;;;;;;15.57;2.63;;;;;;;;;;5041189;28;20049;-52
2022/01/17 10:23:39;;;;;;;14.35;2.33;;;;;;;;;;5040325;28;20049;-60
2022/01/17 10:26:11;;;;;;;17.60;2.65;;;;;;;;;;5046097;28;20064;-58
2022/01/17 10:29:02;;;;;;;12.73;2.75;;;;;;;;;;5040171;28;20061;-55
2022/01/17 10:36:55;;;;;;;12.15;1.70;;;;;;;;;;5049846;28;20053;-60
2022/01/17 10:39:22;;;;;;;10.40;2.28;;;;;;;;;;5044229;28;20142;-59
2022/01/17 10:41:48;;;;;;;11.45;2.38;;;;;;;;;;5049773;28;20061;-57
2022/01/17 10:44:29;;;;;;;14.43;2.78;;;;;;;;;;5043084;28;20049;-58
2022/01/17 10:47:11;;;;;;;12.07;2.15;;;;;;;;;;5049027;28;20098;-59
2022/01/17 10:49:48;;;;;;;16.10;2.30;;;;;;;;;;5041883;28;20132;-59
2022/01/17 10:52:26;;;;;;;15.27;2.55;;;;;;;;;;5047309;28;20052;-59
2022/01/17 10:54:55;;;;;;;12.38;1.83;;;;;;;;;;5038205;28;20080;-59
2022/01/17 10:57:22;;;;;;;17.23;2.60;;;;;;;;;;5047714;28;20065;-59
2022/01/17 10:59:51;;;;;;;17.98;2.33;;;;;;;;;;5042080;28;20057;-58
2022/01/17 11:02:17;;;;;;;21.55;2.22;;;;;;;;;;5048478;28;20080;-55
2022/01/17 11:04:44;;;;;;;12.05;1.88;;;;;;;;;;5042628;28;20049;-55
2022/01/17 11:07:13;;;;;;;9.07;1.77;;;;;;;;;;5039008;28;20060;-56
2022/01/17 11:09:39;;;;;;;;;;;;;;;;;;5042702;28;20049;-56
2022/01/17 11:12:09;;;;;;;19.33;1.88;;;;;;;;;;5048447;28;20027;-56
2022/01/17 11:14:36;;;;;;;25.35;2.17;;;;;;;;;;5027763;28;20050;-59
2022/01/17 11:17:10;;;;;;;13.20;1.70;;;;;;;;;;5046794;28;20088;-57
2022/01/17 11:22:22;;;;;;;17.33;2.42;;;;;;;;;;5048446;28;20126;-57
2022/01/17 11:24:49;;;;;;;12.98;2.10;;;;;;;;;;5047221;28;20076;-55
2022/01/17 11:27:15;;;;;;;17.50;1.60;;;;;;;;;;5041957;28;20056;-56
2022/01/17 11:29:42;;;;;;;18.17;2.03;;;;;;;;;;5047650;28;20178;-52
2022/01/17 11:32:08;;;;;;;14.70;1.95;;;;;;;;;;5041937;28;20102;-56
2022/01/17 11:34:35;;;;;;;7.07;1.50;;;;;;;;;;5047880;28;20045;-55
2022/01/17 11:37:02;;;;;;;9.23;1.58;;;;;;;;;;5042740;28;20114;-55
2022/01/17 11:39:30;;;;;;;12.73;1.52;;;;;;;;;;5047757;28;20045;-59
2022/01/17 11:41:57;;;;;;;10.95;1.85;;;;;;;;;;5041849;28;20053;-57
2022/01/17 11:44:32;;;;;;;20.27;2.20;;;;;;;;;;5047885;28;20049;-59
2022/01/17 11:47:00;;;;;;;17.27;2.45;;;;;;;;;;5041793;28;20053;-59
2022/01/17 11:49:28;;;;;;;24.92;2.60;;;;;;;;;;5047232;28;20064;-59
2022/01/17 11:51:55;;;;;;;23.10;1.90;;;;;;;;;;5041519;28;20059;-55
2022/01/17 11:54:22;;;;;;;14.70;2.30;;;;;;;;;;5047800;28;20049;-59
2022/01/17 11:56:51;;;;;;;17.27;1.92;;;;;;;;;;5042097;28;20049;-59
2022/01/17 11:59:26;;;;;;;10.52;1.83;;;;;;;;;;5047448;28;20047;-57
2022/01/17 12:02:11;;;;;;;16.45;1.90;;;;;;;;;;5041742;28;20048;-57
2022/01/17 12:04:37;;;;;;;18.60;1.88;;;;;;;;;;5048277;28;20057;-59
2022/01/17 12:07:04;;;;;;;14.95;1.80;;;;;;;;;;5039920;28;20072;-59
2022/01/17 12:09:31;;;;;;;22.13;1.80;;;;;;;;;;5049350;28;20099;-56
2022/01/17 12:12:12;;;;;;;13.98;1.52;;;;;;;;;;5060279;28;20102;-56
2022/01/17 12:14:43;;;;;;;22.77;2.03;;;;;;;;;;5047259;28;20053;-59
2022/01/17 12:17:29;;;;;;;14.20;1.23;;;;;;;;;;5057413;28;20060;-59
2022/01/17 12:20:16;;;;;;;13.95;1.58;;;;;;;;;;5040651;28;20064;-58
2022/01/17 12:22:49;;;;;;;18.10;1.75;;;;;;;;;;5041293;28;20053;-59
2022/01/17 12:25:31;;;;;;;18.52;2.40;;;;;;;;;;5047475;28;20053;-59
2022/01/17 12:28:13;;;;;;;24.92;2.25;;;;;;;;;;5040446;28;20052;-54
2022/01/17 12:30:42;;;;;;;9.93;1.25;;;;;;;;;;5045668;28;20056;-58
2022/01/17 12:33:11;;;;;;;13.10;1.50;;;;;;;;;;5042302;28;20044;-58
2022/01/17 12:35:46;;;;;;;41.33;2.95;;;;;;;;;;5046787;28;20069;-57
2022/01/17 12:38:15;;;;;;;11.90;1.77;;;;;;;;;;5040622;28;20080;-59
2022/01/17 12:40:42;;;;;;;23.27;2.33;;;;;;;;;;5046721;28;20053;-57
2022/01/17 12:43:11;;;;;;;17.25;1.75;;;;;;;;;;5040826;28;20052;-55
2022/01/17 12:45:40;;;;;;;25.63;3.10;;;;;;;;;;5046471;28;20102;-59
2022/01/17 12:48:09;;;;;;;25.60;2.38;;;;;;;;;;5046042;28;20108;-59
2022/01/17 12:50:36;;;;;;;;;;;;;;;;;;5039510;28;20049;-58
2022/01/17 12:53:03;;;;;;;24.17;2.42;;;;;;;;;;5045634;28;19963;-58
2022/01/17 12:55:35;;;;;;;27.25;2.30;;;;;;;;;;5040521;28;20140;-57
2022/01/17 12:58:02;;;;;;;19.17;2.85;;;;;;;;;;5045364;28;20049;-55
2022/01/17 13:00:28;;;;;;;27.85;3.08;;;;;;;;;;5041007;28;20063;-55
2022/01/17 13:02:56;;;;;;;27.40;2.75;;;;;;;;;;5044675;28;20060;-58
2022/01/17 13:05:27;;;;;;;11.15;1.98;;;;;;;;;;5034060;28;20053;-56
2022/01/17 13:07:54;;;;;;;14.27;1.85;;;;;;;;;;5046877;28;20106;-57
2022/01/17 13:10:21;;;;;;;20.05;1.75;;;;;;;;;;5041305;28;20064;-55
2022/01/17 13:12:49;;;;;;;14.45;1.75;;;;;;;;;;5042708;28;20117;-60
2022/01/17 13:15:15;;;;;;;31.05;2.53;;;;;;;;;;5029167;28;20135;-53
2022/01/17 13:17:42;;;;;;;14.60;2.05;;;;;;;;;;5045600;28;20056;-52
2022/01/17 13:20:09;;;;;;;22.95;2.67;;;;;;;;;;5038869;28;20056;-57
2022/01/17 13:22:50;;;;;;;21.55;1.83;;;;;;;;;;5045397;28;20071;-56
2022/01/17 13:25:18;;;;;;;29.42;2.40;;;;;;;;;;5039238;28;20045;-59
2022/01/17 13:27:45;;;;;;;16.45;1.75;;;;;;;;;;5045785;28;20056;-59
2022/01/17 13:30:12;;;;;;;25.98;2.30;;;;;;;;;;5040217;28;20045;-56
2022/01/17 13:32:41;;;;;;;38.13;3.35;;;;;;;;;;5045896;28;20064;-57
2022/01/17 13:35:08;;;;;;;;;;;;;;;;;;5057509;28;20140;-59
2022/01/17 13:37:35;;;;;;;14.07;2.70;;;;;;;;;;5045387;28;20023;-58
2022/01/17 13:40:13;;;;;;;28.13;2.63;;;;;;;;;;5047442;28;20130;-57
2022/01/17 13:42:44;;;;;;;31.52;2.80;;;;;;;;;;5043631;28;20055;-55
2022/01/17 13:45:11;;;;;;;14.68;1.50;;;;;;;;;;5046467;28;20060;-61
2022/01/17 13:47:38;;;;;;;31.75;3.33;;;;;;;;;;5040144;28;20057;-58
2022/01/17 13:50:05;;;;;;;12.52;2.05;;;;;;;;;;5045768;28;20052;-60
2022/01/17 13:52:32;;;;;;;14.27;1.63;;;;;;;;;;5040123;28;20048;-60
2022/01/17 13:54:59;;;;;;;32.03;2.20;;;;;;;;;;5045722;28;20139;-59
2022/01/17 13:57:27;;;;;;;21.17;2.00;;;;;;;;;;5039691;28;20084;-57
2022/01/17 13:59:55;;;;;;;11.70;1.38;;;;;;;;;;5045940;28;20053;-56
2022/01/17 14:02:23;;;;;;;30.00;2.28;;;;;;;;;;5039406;28;20053;-58
2022/01/17 14:04:49;;;;;;;11.77;1.95;;;;;;;;;;5046368;28;20060;-60
2022/01/17 14:07:23;;;;;;;26.40;2.22;;;;;;;;;;5043497;28;20052;-59
2022/01/17 14:09:49;;;;;;;37.88;3.78;;;;;;;;;;5049553;28;20053;-60
2022/01/17 14:12:16;;;;;;;19.85;1.80;;;;;;;;;;5043823;28;20048;-59
2022/01/17 14:14:49;;;;;;;37.90;2.67;;;;;;;;;;5048999;28;20048;-60
2022/01/17 14:17:22;;;;;;;13.82;1.73;;;;;;;;;;5042529;28;20064;-57
2022/01/17 14:19:51;;;;;;;28.88;3.20;;;;;;;;;;5048868;28;20049;-60
2022/01/17 14:22:18;;;;;;;14.57;1.00;;;;;;;;;;5043263;28;20052;-59
2022/01/17 14:24:45;;;;;;;24.98;2.47;;;;;;;;;;5049206;28;20061;-60
2022/01/17 14:27:14;;;;;;;17.60;1.70;;;;;;;;;;5043051;28;20373;-56
2022/01/17 14:29:42;;;;;;;23.27;2.17;;;;;;;;;;5047894;28;20053;-53
2022/01/17 14:32:10;;;;;;;22.92;2.00;;;;;;;;;;5049142;28;20047;-60
2022/01/17 14:34:38;;;;;;;15.35;2.00;;;;;;;;;;5043258;28;20045;-58
2022/01/17 14:37:06;;;;;;;22.23;2.50;;;;;;;;;;5048923;28;20065;-60
2022/01/17 14:39:34;;;;;;;24.35;2.22;;;;;;;;;;5043850;28;20110;-59
2022/01/17 14:42:04;;;;;;;22.57;2.40;;;;;;;;;;5050013;28;20044;-57
2022/01/17 14:44:32;;;;;;;21.67;2.38;;;;;;;;;;5043439;28;20288;-60
2022/01/17 14:47:01;;;;;;;33.78;3.63;;;;;;;;;;5048910;28;20076;-60
2022/01/17 14:49:28;;;;;;;;;;;;;;;;;;5044176;28;20057;-58
2022/01/17 14:51:57;;;;;;;29.00;2.75;;;;;;;;;;5048940;28;19924;-60
2022/01/17 14:54:29;;;;;;;25.30;1.90;;;;;;;;;;5043457;28;20057;-61
2022/01/17 14:59:59;;;;;;;19.75;2.55;;;;;;;;;;5005264;28;20548;-60